North Judson, Indiana
Current Conditions -  °F | °C
As of 5:55 PM on Sunday 21 Dec 2014 (Local Time) from KOXI Reporting Station
Clear Clear  
Wind Chill: -3°   Ceiling: Unl
Heat Index:   Visibility: 7mi
Dew Point: -4°   Wind: 7mph
Humidity: 75%   Direction: 120°ESE
Pressure: 30.11"   Gusts: NA
Location:  41.22°N, 86.78°W
Report Text: KOXI 212355Z AUTO 12006KT 7SM CLR 00/M04 A3011 RMK AO1 T00021038 10273 21130
Loading
Personal Weather Stations






























Interactive Weather Map New forecast layout! Learn more

10-Day Weather Forecast

Advertisements
Track Severe Weather on mobile